OIBS

Details ICAO OIBS
Name SIRRI ISLAND
Region Iran
Timezone Asia/Tehran (UTC+3.5)
Plans Departing 3
Arriving 7
Stats Elevation 43 ft / 13 m (AMSL)
Location 25.909145° 54.539429°
Runways 1
Magnetic Variation 2.253° E
Sunrise 2017-12-14 03:01:50 UTC / 2017-12-14 06:31:50 Local
Sunset 2017-12-14 13:33:52 UTC / 2017-12-14 17:03:52 Local
Advertisement - Login to hide

Runways

ID Width Length Bearing (true) Bearing (mag) Surface Threshold Offset Overrun Length
12 175 ft / 53 m 8,350 ft / 2,545 m 127.81° 125.56° Asphalt 4,160 ft / 1,268 m 180 ft / 55 m
30 175 ft / 53 m 8,350 ft / 2,545 m 307.81° 305.56° Asphalt 0 ft / 0 m 200 ft / 61 m

Map

Weather


0- 5 10 15 20 25 30 35+ Temperature / ° C

Clouds and Precipitation
Forecast for 2017-12-14 06:00 UTC. Updated an hour ago

Ground ~20,000 ft ~40,000 ft Winds

METAR

OIBS 140550Z 06018KT 9999 FEW035 BKN100 23/13 Q1019

TAF

Not found

Frequencies

Tower 129.00 MHz INFO
Warning: Do not use this data for real-world aviation or navigation. No guarantee of current accuracy is given.